• Join FlightAware (Why Join?)
  • Login
  • US Flag 
03:06AM EDT


 

Airport Tracker/Info


-or-


 

Live Flight TrackerFlight Track Log ✈ CTL61 ✈ 26-Apr-2013 ✈ KBLF - KCRW

Flight Track Log - Related Links

Times and Time Zones

All times are in EDT time to prevent confusion due to time zone crossing. See the CTL61 flight status page for this flight to view local times or setup timezone preferences in your user account.

Time Position Orientation Groundspeed Altitude Reporting Facility
EDT Latitude Longitude Course Direction KTS MPH feet Rate Location/Type
10:29PM 37.3472 -81.2014 342° North 108 124 4,800  Level Indianapolis Center
10:30PM 37.3831 -81.2164 342° North 123 142 5,800 540 Climbing Indianapolis Center
10:31PM 37.4236 -81.2289 346° North 148 170 5,900 120 Climbing Indianapolis Center
10:32PM 37.4689 -81.2431 346° North 168 193 6,100 60 Climbing Indianapolis Center
10:33PM 37.5150 -81.2625 342° North 175 201 6,100 -60 Level Indianapolis Center
10:34PM 37.5597 -81.2836 339° North 177 204 6,000 -60 Descending Indianapolis Center
10:35PM 37.6128 -81.3097 339° North 174 200 6,000  Level Indianapolis Center
10:36PM 37.6586 -81.3253 345° North 175 201 6,000  Level Indianapolis Center
10:37PM 37.7036 -81.3419 344° North 174 200 6,000  Level Indianapolis Center
10:38PM 37.7489 -81.3581 344° North 173 199 6,100  Climbing Indianapolis Center
10:39PM 37.8014 -81.3803 342° North 171 197 6,000 -60 Descending Indianapolis Center
10:40PM 37.8481 -81.4000 342° North 174 200 6,000  Level Indianapolis Center
10:41PM 37.8931 -81.4200 341° North 171 197 6,000  Level Indianapolis Center
10:42PM 37.9381 -81.4361 344° North 169 194 6,000 -60 Level Indianapolis Center
10:43PM 37.9842 -81.4533 344° North 171 197 5,900 -300 Descending Indianapolis Center
10:44PM 38.0328 -81.4711 344° North 178 205 5,500 -480 Descending Indianapolis Center
10:45PM 38.0817 -81.4883 345° North 183 211 5,000 -540 Descending Indianapolis Center
10:46PM 38.1311 -81.5061 344° North 184 212 4,500 -600 Descending Indianapolis Center
10:47PM 38.1797 -81.5244 343° North 183 211 3,900 -600 Descending Indianapolis Center
10:48PM 38.2278 -81.5481 339° North 183 211 3,400 -600 Descending Indianapolis Center
10:49PM 38.2728 -81.5769 333° Northwest 181 208 2,700 -600 Descending Indianapolis Center
10:50PM 38.3142 -81.6011 335° Northwest 174 200 2,200 -600 Descending Indianapolis Center
10:51PM 38.3522 -81.6178 341° North 160 184 1,500 -360 Descending Indianapolis Center
10:52PM 38.3878 -81.6317 343° North 156 180 1,500  Level Indianapolis Center